createdAt,value
2023-02-10T00:00:18.184Z,52.2143
2023-02-10T00:01:18.224Z,52.2143
2023-02-10T00:02:18.288Z,52.2857
2023-02-10T00:03:18.300Z,52.3571
2023-02-10T00:04:18.347Z,52.3571
2023-02-10T00:05:18.367Z,52.3571
2023-02-10T00:06:18.389Z,52.3571
2023-02-10T00:07:18.425Z,52.4286
2023-02-10T00:08:18.449Z,52.4286
2023-02-10T00:09:18.517Z,52.5
2023-02-10T00:10:18.514Z,52.5
2023-02-10T00:11:18.549Z,52.4286
2023-02-10T00:12:18.581Z,52.5
2023-02-10T00:13:18.608Z,52.5714
2023-02-10T00:14:18.666Z,52.7143
2023-02-10T00:15:18.683Z,52.7857
2023-02-10T00:16:18.766Z,52.9286
2023-02-10T00:17:18.757Z,53
2023-02-10T00:18:18.794Z,53.0714
2023-02-10T00:19:18.817Z,53.1429
2023-02-10T00:20:18.861Z,53.2143
2023-02-10T00:21:18.895Z,53.2857
2023-02-10T00:22:18.919Z,53.2857
2023-02-10T00:23:18.959Z,53.2857
2023-02-10T00:24:18.992Z,53.2857
2023-02-10T00:25:19.035Z,53.3571
2023-02-10T00:26:19.070Z,53.5714
2023-02-10T00:27:19.096Z,53.5
2023-02-10T00:28:19.189Z,53.5714
2023-02-10T00:29:19.148Z,53.5714
2023-02-10T00:30:19.176Z,53.6429
2023-02-10T00:31:19.255Z,53.6429
2023-02-10T00:32:19.257Z,53.5714
2023-02-10T00:33:19.328Z,53.5714
2023-02-10T00:34:19.343Z,53.6429
2023-02-10T00:35:19.368Z,53.5714
2023-02-10T00:36:19.382Z,53.6429
2023-02-10T00:37:19.428Z,53.6429
2023-02-10T00:38:19.460Z,53.7857
2023-02-10T00:39:19.483Z,53.7143
2023-02-10T00:40:19.521Z,53.7143
2023-02-10T00:41:19.565Z,53.7143
2023-02-10T00:42:19.592Z,53.7857
2023-02-10T00:43:19.617Z,53.7857
2023-02-10T00:44:19.672Z,53.9286
2023-02-10T00:45:19.695Z,53.9286
2023-02-10T00:46:19.837Z,53.8571
2023-02-10T00:47:19.757Z,53.9286
2023-02-10T00:48:19.802Z,54.0714
2023-02-10T00:49:19.823Z,54.1429
2023-02-10T00:50:19.853Z,54.2143
2023-02-10T00:51:19.900Z,54.2857
2023-02-10T00:52:19.929Z,54.2857
2023-02-10T00:53:19.966Z,54.2143
2023-02-10T00:54:19.992Z,54.2143
2023-02-10T00:55:20.036Z,54.2857
2023-02-10T00:56:20.068Z,54.2143
2023-02-10T00:57:20.114Z,54.1429
2023-02-10T00:58:20.151Z,54.1429
2023-02-10T00:59:20.162Z,54.1429
2023-02-10T01:00:20.198Z,54.1429
2023-02-10T01:01:20.235Z,54.2143
2023-02-10T01:02:20.277Z,54.2857
2023-02-10T01:03:20.466Z,54.3571
2023-02-10T01:04:20.343Z,54.5
2023-02-10T01:05:20.376Z,54.5714
2023-02-10T01:06:20.543Z,54.7143
2023-02-10T01:07:20.460Z,54.7857
2023-02-10T01:08:20.473Z,54.8571
2023-02-10T01:09:20.502Z,55
2023-02-10T01:10:20.544Z,55.1429
2023-02-10T01:11:20.569Z,55.1429
2023-02-10T01:12:20.614Z,55.2143
2023-02-10T01:13:20.636Z,55.2857
2023-02-10T01:14:20.680Z,55.3571
2023-02-10T01:15:20.696Z,55.4286
2023-02-10T01:16:20.787Z,55.5
2023-02-10T01:17:20.773Z,55.5714
2023-02-10T01:18:20.810Z,55.7143
2023-02-10T01:19:20.836Z,55.7143
2023-02-10T01:20:20.872Z,55.7857
2023-02-10T01:21:20.920Z,55.8571
2023-02-10T01:22:20.942Z,55.9286
2023-02-10T01:23:20.987Z,56
2023-02-10T01:24:21.031Z,56.1429
2023-02-10T01:25:21.041Z,56.2857
2023-02-10T01:26:21.073Z,56.3571
2023-02-10T01:27:21.098Z,56.4286
2023-02-10T01:28:21.184Z,56.4286
2023-02-10T01:29:21.164Z,56.5714
2023-02-10T01:30:21.196Z,56.6429
2023-02-10T01:31:21.285Z,56.6429
2023-02-10T01:32:21.254Z,56.7143
2023-02-10T01:33:21.318Z,56.8571
2023-02-10T01:34:21.325Z,56.8571
2023-02-10T01:35:21.360Z,56.8571
2023-02-10T01:36:21.398Z,56.9286
2023-02-10T01:37:21.431Z,57
2023-02-10T01:38:21.483Z,57.0714
2023-02-10T01:39:21.508Z,57.0714
2023-02-10T01:40:21.543Z,57.1429
2023-02-10T01:41:21.584Z,57.1429
2023-02-10T01:42:21.624Z,57.2143
2023-02-10T01:43:21.651Z,57.2143
2023-02-10T01:44:21.687Z,57.2143
2023-02-10T01:45:21.719Z,57.2857
2023-02-10T01:46:21.786Z,57.3571
2023-02-10T01:47:21.780Z,57.3571
2023-02-10T01:48:21.811Z,57.4286
2023-02-10T01:49:21.850Z,57.5
2023-02-10T01:50:21.880Z,57.5
2023-02-10T01:51:21.909Z,57.5714
2023-02-10T01:52:21.966Z,57.6429
2023-02-10T01:53:22.002Z,57.6429
2023-02-10T01:54:22.028Z,57.7143
2023-02-10T01:55:22.061Z,57.7857
2023-02-10T01:56:22.102Z,57.8571
2023-02-10T01:57:22.130Z,57.8571
2023-02-10T01:58:22.186Z,57.9286
2023-02-10T01:59:22.206Z,57.8571
2023-02-10T02:00:22.232Z,57.8571
2023-02-10T02:01:22.310Z,57.9286
2023-02-10T02:02:22.357Z,58
2023-02-10T02:03:22.336Z,58
2023-02-10T02:04:22.361Z,58.0714
2023-02-10T02:05:22.394Z,58.1429
2023-02-10T02:06:22.432Z,58.1429
2023-02-10T02:07:22.475Z,58.1429
2023-02-10T02:08:22.497Z,58.2143
2023-02-10T02:09:22.535Z,58.2143
2023-02-10T02:10:22.577Z,58.2143
2023-02-10T02:11:22.611Z,58.2857
2023-02-10T02:12:22.630Z,58.2857
2023-02-10T02:13:22.665Z,58.2857
2023-02-10T02:14:22.688Z,58.3571
2023-02-10T02:15:22.724Z,58.3571
2023-02-10T02:16:22.859Z,58.4286
2023-02-10T02:17:22.792Z,58.5
2023-02-10T02:18:22.827Z,58.5714
2023-02-10T02:19:22.867Z,58.5714
2023-02-10T02:20:22.920Z,58.5714
2023-02-10T02:21:22.944Z,58.6429
2023-02-10T02:22:22.974Z,58.6429
2023-02-10T02:23:23.055Z,58.6429
2023-02-10T02:24:23.047Z,58.7143
2023-02-10T02:25:23.084Z,58.7143
2023-02-10T02:26:23.117Z,58.7857
2023-02-10T02:27:23.144Z,58.7857
2023-02-10T02:28:23.217Z,58.7857
2023-02-10T02:29:23.207Z,58.7857
2023-02-10T02:30:23.248Z,58.8571
2023-02-10T02:31:23.271Z,58.9286
2023-02-10T02:32:23.294Z,58.8571
2023-02-10T02:33:23.329Z,58.9286
2023-02-10T02:34:23.364Z,59
2023-02-10T02:35:23.407Z,59
2023-02-10T02:36:23.439Z,59
2023-02-10T02:37:23.460Z,59
2023-02-10T02:38:23.500Z,59.0714
2023-02-10T02:39:23.527Z,59.0714
2023-02-10T02:40:23.589Z,59.1429
2023-02-10T02:41:23.606Z,59.1429
2023-02-10T02:42:23.635Z,59.1429
2023-02-10T02:43:23.674Z,59.2143
2023-02-10T02:44:23.706Z,59.2857
2023-02-10T02:45:23.743Z,59.2857
2023-02-10T02:46:23.789Z,59.2857
2023-02-10T02:47:23.858Z,59.3571
2023-02-10T02:48:23.855Z,59.3571
2023-02-10T02:49:23.888Z,59.3571
2023-02-10T02:50:23.924Z,59.4286
2023-02-10T02:51:23.976Z,59.5
2023-02-10T02:52:24.006Z,59.5
2023-02-10T02:53:24.043Z,59.5714
2023-02-10T02:54:24.062Z,59.5714
2023-02-10T02:55:24.105Z,59.6429
2023-02-10T02:56:24.132Z,59.6429
2023-02-10T02:57:24.191Z,59.7143
2023-02-10T02:58:24.203Z,59.7143
2023-02-10T02:59:24.239Z,59.7857
2023-02-10T03:00:24.292Z,59.8571
2023-02-10T03:01:24.325Z,59.9286
2023-02-10T03:02:24.331Z,59.9286
2023-02-10T03:03:24.372Z,60
2023-02-10T03:04:24.507Z,60.0714
2023-02-10T03:05:24.428Z,60.1429
2023-02-10T03:06:24.463Z,60.1429
2023-02-10T03:07:24.486Z,60.2143
2023-02-10T03:08:24.515Z,60.2857
2023-02-10T03:09:24.543Z,60.2857
2023-02-10T03:10:24.589Z,60.4286
2023-02-10T03:11:24.608Z,60.4286
2023-02-10T03:12:24.644Z,60.5
2023-02-10T03:13:24.681Z,60.5
2023-02-10T03:14:24.710Z,60.5714
2023-02-10T03:15:24.742Z,60.6429
2023-02-10T03:16:24.785Z,60.7143
2023-02-10T03:17:24.815Z,60.7857
2023-02-10T03:18:24.846Z,60.8571
2023-02-10T03:19:24.876Z,60.9286
2023-02-10T03:20:24.909Z,61
2023-02-10T03:21:24.935Z,61.0714
2023-02-10T03:22:24.971Z,61.1429
2023-02-10T03:23:25.010Z,61.2143
2023-02-10T03:24:25.036Z,61.3571
2023-02-10T03:25:25.068Z,61.4286
2023-02-10T03:26:25.117Z,61.5
2023-02-10T03:27:25.136Z,61.6429
2023-02-10T03:28:25.235Z,61.7143
2023-02-10T03:29:25.197Z,61.7857
2023-02-10T03:30:25.245Z,61.8571
2023-02-10T03:31:25.380Z,61.8571
2023-02-10T03:32:25.318Z,61.9286
2023-02-10T03:33:25.342Z,61.9286
2023-02-10T03:34:25.366Z,62
2023-02-10T03:35:25.397Z,62
2023-02-10T03:36:25.488Z,61.9286
2023-02-10T03:37:25.481Z,61.9286
2023-02-10T03:38:25.514Z,61.8571
2023-02-10T03:39:25.534Z,61.8571
2023-02-10T03:40:25.571Z,61.8571
2023-02-10T03:41:25.602Z,61.8571
2023-02-10T03:42:25.641Z,61.8571
2023-02-10T03:43:25.666Z,61.8571
2023-02-10T03:44:25.715Z,61.8571
2023-02-10T03:45:25.742Z,61.7857
2023-02-10T03:46:25.859Z,61.7857
2023-02-10T03:47:25.807Z,61.7143
2023-02-10T03:48:25.845Z,61.7143
2023-02-10T03:49:25.883Z,61.7143
2023-02-10T03:50:25.917Z,61.7143
2023-02-10T03:51:25.959Z,61.7143
2023-02-10T03:52:25.981Z,61.7143
2023-02-10T03:53:26.018Z,61.7143
2023-02-10T03:54:26.045Z,61.6429
2023-02-10T03:55:26.083Z,61.7143
2023-02-10T03:56:26.127Z,61.7143
2023-02-10T03:57:26.164Z,61.7143
2023-02-10T03:58:26.200Z,61.7143
2023-02-10T03:59:26.257Z,61.6429
2023-02-10T04:00:26.260Z,61.6429
2023-02-10T04:01:26.329Z,61.6429
2023-02-10T04:02:26.332Z,61.5714
2023-02-10T04:03:26.378Z,61.5714
2023-02-10T04:04:26.392Z,61.6429
2023-02-10T04:05:26.437Z,61.7143
2023-02-10T04:06:26.445Z,61.7143
2023-02-10T04:07:26.484Z,61.7143
2023-02-10T04:08:26.514Z,61.7857
2023-02-10T04:09:26.538Z,61.7143
2023-02-10T04:10:26.581Z,61.7857
2023-02-10T04:11:26.609Z,61.7857
2023-02-10T04:12:26.645Z,61.7143
2023-02-10T04:13:26.683Z,61.7143
2023-02-10T04:14:26.730Z,61.7143
2023-02-10T04:15:26.765Z,61.6429
2023-02-10T04:16:26.878Z,61.6429
2023-02-10T04:17:26.827Z,61.6429
2023-02-10T04:18:26.868Z,61.5714
2023-02-10T04:19:26.910Z,61.5714
2023-02-10T04:20:26.941Z,61.5714
2023-02-10T04:21:26.980Z,61.5714
2023-02-10T04:22:27.005Z,61.5714
2023-02-10T04:23:27.035Z,61.5714
2023-02-10T04:24:27.065Z,61.5714
2023-02-10T04:25:27.109Z,61.5
2023-02-10T04:26:27.129Z,61.5714
2023-02-10T04:27:27.169Z,61.5714
2023-02-10T04:28:27.323Z,61.6429
2023-02-10T04:29:27.240Z,61.6429
2023-02-10T04:30:27.277Z,61.7143
2023-02-10T04:31:27.540Z,61.7143
2023-02-10T04:32:27.387Z,61.6429
2023-02-10T04:33:27.381Z,61.7143
2023-02-10T04:34:27.427Z,61.7143
2023-02-10T04:35:27.449Z,61.7143
2023-02-10T04:36:27.489Z,61.7143
2023-02-10T04:37:27.535Z,61.7143
2023-02-10T04:38:27.557Z,61.7143
2023-02-10T04:39:27.589Z,61.7857
2023-02-10T04:40:27.633Z,61.7857
2023-02-10T04:41:27.646Z,61.7857
2023-02-10T04:42:27.681Z,61.8571
2023-02-10T04:43:27.718Z,61.8571
2023-02-10T04:44:27.763Z,61.8571
2023-02-10T04:45:27.776Z,61.8571
2023-02-10T04:46:27.846Z,61.9286
2023-02-10T04:47:27.862Z,61.9286
2023-02-10T04:48:27.880Z,62
2023-02-10T04:49:27.920Z,62
2023-02-10T04:50:27.943Z,62.0714
2023-02-10T04:51:27.988Z,62.0714
2023-02-10T04:52:28.024Z,62.1429
2023-02-10T04:53:28.093Z,62.1429
2023-02-10T04:54:28.102Z,62.2143
2023-02-10T04:55:28.122Z,62.2143
2023-02-10T04:56:28.164Z,62.2857
2023-02-10T04:57:28.200Z,62.2857
2023-02-10T04:58:28.234Z,62.2857
2023-02-10T04:59:28.254Z,62.2857
2023-02-10T05:00:28.374Z,62.3571
2023-02-10T05:01:28.307Z,62.3571
2023-02-10T05:02:28.343Z,62.3571
2023-02-10T05:03:28.375Z,62.4286
2023-02-10T05:04:28.414Z,62.4286
2023-02-10T05:05:28.448Z,62.4286
2023-02-10T05:06:28.484Z,62.4286
2023-02-10T05:07:28.510Z,62.5
2023-02-10T05:08:28.544Z,62.5
2023-02-10T05:09:28.585Z,62.5
2023-02-10T05:10:28.619Z,62.5
2023-02-10T05:11:28.636Z,62.5714
2023-02-10T05:12:28.672Z,62.5714
2023-02-10T05:13:28.711Z,62.6429
2023-02-10T05:14:28.774Z,62.7143
2023-02-10T05:15:28.767Z,62.7857
2023-02-10T05:16:28.874Z,62.7857
2023-02-10T05:17:28.841Z,62.8571
2023-02-10T05:18:28.867Z,62.9286
2023-02-10T05:19:28.928Z,63
2023-02-10T05:20:28.959Z,63
2023-02-10T05:21:28.984Z,63
2023-02-10T05:22:29.015Z,63
2023-02-10T05:23:29.062Z,63.0714
2023-02-10T05:24:29.104Z,63.0714
2023-02-10T05:25:29.125Z,63.0714
2023-02-10T05:26:29.174Z,63.2143
2023-02-10T05:27:29.198Z,63.2857
2023-02-10T05:28:29.261Z,63.3571
2023-02-10T05:29:29.267Z,63.4286
2023-02-10T05:30:29.433Z,63.5
2023-02-10T05:31:29.471Z,63.5714
2023-02-10T05:32:29.370Z,63.6429
2023-02-10T05:33:29.401Z,63.6429
2023-02-10T05:34:29.440Z,63.7143
2023-02-10T05:35:29.473Z,63.7857
2023-02-10T05:36:29.514Z,63.8571
2023-02-10T05:37:29.545Z,64
2023-02-10T05:38:29.579Z,64.0714
2023-02-10T05:39:29.612Z,64.1429
2023-02-10T05:40:29.637Z,64.2143
2023-02-10T05:41:29.681Z,64.2857
2023-02-10T05:42:29.711Z,64.3571
2023-02-10T05:43:29.735Z,64.3571
2023-02-10T05:44:29.779Z,64.5
2023-02-10T05:45:29.874Z,64.5
2023-02-10T05:46:29.839Z,64.6429
2023-02-10T05:47:29.876Z,64.7143
2023-02-10T05:48:29.908Z,64.7857
2023-02-10T05:49:29.956Z,64.8571
2023-02-10T05:50:29.987Z,64.9286
2023-02-10T05:51:30.010Z,64.9286
2023-02-10T05:52:30.054Z,65
2023-02-10T05:53:30.083Z,65.0714
2023-02-10T05:54:30.112Z,65.1429
2023-02-10T05:55:30.149Z,65.1429
2023-02-10T05:56:30.166Z,65.2857
2023-02-10T05:57:30.204Z,65.3571
2023-02-10T05:58:30.240Z,65.5
2023-02-10T05:59:30.272Z,65.5
2023-02-10T06:00:30.298Z,65.5
2023-02-10T06:01:30.328Z,65.5714
2023-02-10T06:02:30.401Z,65.6429
2023-02-10T06:03:30.461Z,65.6429
2023-02-10T06:04:30.443Z,65.7143
2023-02-10T06:05:30.477Z,65.7857
2023-02-10T06:06:30.497Z,65.8571
2023-02-10T06:07:30.538Z,66
2023-02-10T06:08:30.582Z,66
2023-02-10T06:09:30.601Z,66
2023-02-10T06:10:30.643Z,66.0714
2023-02-10T06:11:30.674Z,66.0714
2023-02-10T06:12:30.705Z,66.0714
2023-02-10T06:13:30.742Z,66.0714
2023-02-10T06:14:30.771Z,66.1429
2023-02-10T06:15:30.795Z,66.2143
2023-02-10T06:16:30.836Z,66.2143
2023-02-10T06:17:30.865Z,66.2143
2023-02-10T06:18:30.904Z,66.2143
2023-02-10T06:19:30.955Z,66.2857
2023-02-10T06:20:30.986Z,66.2857
2023-02-10T06:21:31.003Z,66.3571
2023-02-10T06:22:31.047Z,66.4286
2023-02-10T06:23:31.067Z,66.5
2023-02-10T06:24:31.103Z,66.5
2023-02-10T06:25:31.158Z,66.5
2023-02-10T06:26:31.191Z,66.5714
2023-02-10T06:27:31.220Z,66.5714
2023-02-10T06:28:31.297Z,66.5714
2023-02-10T06:29:31.322Z,66.5714
2023-02-10T06:30:31.426Z,66.6429
2023-02-10T06:31:31.481Z,66.6429
2023-02-10T06:32:31.388Z,66.7143
2023-02-10T06:33:31.425Z,66.7143
2023-02-10T06:34:31.473Z,66.7143
2023-02-10T06:35:31.491Z,66.7857
2023-02-10T06:36:31.520Z,66.7857
2023-02-10T06:37:31.539Z,66.7857
2023-02-10T06:38:31.592Z,66.7143
2023-02-10T06:39:32.658Z,66.7143
2023-02-10T06:40:31.646Z,66.7857
2023-02-10T06:41:31.685Z,66.7857
2023-02-10T06:42:31.722Z,66.7857
2023-02-10T06:43:31.758Z,66.7143
2023-02-10T06:44:31.783Z,66.7143
2023-02-10T06:45:31.817Z,66.7143
2023-02-10T06:46:31.890Z,66.7857
2023-02-10T06:47:31.872Z,66.7857
2023-02-10T06:48:31.916Z,66.7857
2023-02-10T06:49:31.947Z,66.7857
2023-02-10T06:50:31.973Z,66.7857
2023-02-10T06:51:32.014Z,66.7857
2023-02-10T06:52:32.024Z,66.7857
2023-02-10T06:53:32.069Z,66.8571
2023-02-10T06:54:32.091Z,66.9286
2023-02-10T06:55:32.129Z,67
2023-02-10T06:56:32.165Z,67
2023-02-10T06:57:32.197Z,67
2023-02-10T06:58:32.228Z,66.9286
2023-02-10T06:59:32.251Z,66.9286
2023-02-10T07:00:32.288Z,66.9286
2023-02-10T07:01:32.419Z,66.8571
2023-02-10T07:02:32.390Z,66.8571
2023-02-10T07:03:32.388Z,66.9286
2023-02-10T07:04:32.419Z,66.9286
2023-02-10T07:05:32.483Z,67
2023-02-10T07:06:32.488Z,67
2023-02-10T07:07:32.517Z,66.9286
2023-02-10T07:08:32.542Z,66.8571
2023-02-10T07:09:32.620Z,66.7857
2023-02-10T07:10:32.626Z,66.7143
2023-02-10T07:11:32.658Z,66.7143
2023-02-10T07:12:32.684Z,66.6429
2023-02-10T07:13:32.724Z,66.6429
2023-02-10T07:14:32.782Z,66.6429
2023-02-10T07:15:32.840Z,66.5714
2023-02-10T07:16:32.824Z,66.5714
2023-02-10T07:17:32.852Z,66.5714
2023-02-10T07:18:32.889Z,66.5
2023-02-10T07:19:32.949Z,66.5714
2023-02-10T07:20:32.966Z,66.5
2023-02-10T07:21:33.010Z,66.5
2023-02-10T07:22:33.047Z,66.5714
2023-02-10T07:23:36.768Z,66.5714
2023-02-10T07:24:33.112Z,66.5714
2023-02-10T07:25:33.141Z,66.5714
2023-02-10T07:26:33.191Z,66.5
2023-02-10T07:27:33.219Z,66.4286
2023-02-10T07:28:33.302Z,66.4286
2023-02-10T07:29:33.312Z,66.5
2023-02-10T07:30:33.359Z,66.4286
2023-02-10T07:31:33.432Z,66.3571
2023-02-10T07:32:33.379Z,66.3571
2023-02-10T07:33:33.418Z,66.2857
2023-02-10T07:34:33.479Z,66.2143
2023-02-10T07:35:33.479Z,66.1429
2023-02-10T07:36:33.532Z,66.1429
2023-02-10T07:37:33.547Z,66.0714
2023-02-10T07:38:33.590Z,66.0714
2023-02-10T07:39:33.609Z,66.0714
2023-02-10T07:40:33.652Z,66
2023-02-10T07:41:33.673Z,66
2023-02-10T07:42:33.702Z,65.9286
2023-02-10T07:43:33.790Z,65.9286
2023-02-10T07:44:33.773Z,65.9286
2023-02-10T07:45:33.809Z,65.9286
2023-02-10T07:46:33.938Z,65.9286
2023-02-10T07:47:33.894Z,65.8571
2023-02-10T07:48:33.911Z,65.8571
2023-02-10T07:49:33.958Z,65.7857
2023-02-10T07:50:34.764Z,65.7857
2023-02-10T07:51:34.011Z,65.7143
2023-02-10T07:52:34.039Z,65.7143
2023-02-10T07:53:34.075Z,65.6429
2023-02-10T07:54:34.118Z,65.5714
2023-02-10T07:55:34.142Z,65.5714
2023-02-10T07:56:34.179Z,65.5714
2023-02-10T07:57:34.211Z,65.5
2023-02-10T07:58:34.248Z,65.5
2023-02-10T07:59:34.277Z,65.4286
2023-02-10T08:00:34.322Z,65.3571
2023-02-10T08:01:34.340Z,65.2857
2023-02-10T08:02:34.423Z,65.2857
2023-02-10T08:03:34.421Z,65.2857
2023-02-10T08:04:34.435Z,65.2143
2023-02-10T08:05:34.485Z,65.1429
2023-02-10T08:06:34.499Z,65.0714
2023-02-10T08:07:34.548Z,65
2023-02-10T08:08:34.583Z,64.9286
2023-02-10T08:09:34.647Z,64.8571
2023-02-10T08:10:34.636Z,64.7857
2023-02-10T08:11:34.681Z,64.7143
2023-02-10T08:12:34.702Z,64.6429
2023-02-10T08:13:34.738Z,64.5714
2023-02-10T08:14:34.782Z,64.5
2023-02-10T08:15:34.799Z,64.4286
2023-02-10T08:16:34.825Z,64.2857
2023-02-10T08:17:34.846Z,64.1429
2023-02-10T08:18:34.883Z,64.0714
2023-02-10T08:19:34.929Z,63.9286
2023-02-10T08:20:34.956Z,63.7857
2023-02-10T08:21:34.994Z,63.7143
2023-02-10T08:22:35.085Z,63.5714
2023-02-10T08:23:35.073Z,63.5
2023-02-10T08:24:35.084Z,63.4286
2023-02-10T08:25:35.127Z,63.3571
2023-02-10T08:26:35.155Z,63.2857
2023-02-10T08:27:35.207Z,63.2857
2023-02-10T08:28:35.235Z,63.2143
2023-02-10T08:29:35.300Z,63.1429
2023-02-10T08:30:35.353Z,63.0714
2023-02-10T08:31:35.344Z,63
2023-02-10T08:32:35.367Z,62.9286
2023-02-10T08:33:45.890Z,62.8571
2023-02-10T08:34:35.448Z,62.8571
2023-02-10T08:35:35.454Z,62.7857
2023-02-10T08:36:35.496Z,62.7143
2023-02-10T08:37:35.528Z,62.7143
2023-02-10T08:38:35.566Z,62.6429
2023-02-10T08:39:35.600Z,62.5
2023-02-10T08:40:35.634Z,62.4286
2023-02-10T08:41:35.679Z,62.3571
2023-02-10T08:42:35.713Z,62.2857
2023-02-10T08:43:35.773Z,62.2143
2023-02-10T08:44:35.782Z,62.0714
2023-02-10T08:45:35.810Z,62
2023-02-10T08:46:35.952Z,61.8571
2023-02-10T08:47:35.907Z,61.7857
2023-02-10T08:48:35.939Z,61.7143
2023-02-10T08:49:36.035Z,61.6429
2023-02-10T08:50:36.002Z,61.4286
2023-02-10T08:51:36.036Z,61.2143
2023-02-10T08:52:36.075Z,61.0714
2023-02-10T08:53:36.112Z,60.8571
2023-02-10T08:54:36.167Z,60.7143
2023-02-10T08:55:36.185Z,60.5
2023-02-10T08:56:36.215Z,60.3571
2023-02-10T08:57:36.254Z,60.2143
2023-02-10T08:58:36.288Z,60
2023-02-10T08:59:36.322Z,59.8571
2023-02-10T09:00:36.366Z,59.7857
2023-02-10T09:01:36.421Z,59.7143
2023-02-10T09:02:36.433Z,59.5714
2023-02-10T09:03:36.441Z,59.4286
2023-02-10T09:04:36.477Z,59.3571
2023-02-10T09:05:36.505Z,59.2857
2023-02-10T09:06:36.536Z,59.2857
2023-02-10T09:07:36.561Z,59.2857
2023-02-10T09:08:36.597Z,59.2143
2023-02-10T09:09:36.637Z,59.2143
2023-02-10T09:10:36.658Z,59.2857
2023-02-10T09:11:36.704Z,59.3571
2023-02-10T09:12:36.735Z,59.4286
2023-02-10T09:13:36.782Z,59.5714
2023-02-10T09:14:36.806Z,59.6429
2023-02-10T09:15:36.842Z,59.7143
2023-02-10T09:16:36.945Z,59.7857
2023-02-10T09:17:36.914Z,59.8571
2023-02-10T09:18:36.952Z,59.8571
2023-02-10T09:19:37.060Z,59.8571
2023-02-10T09:20:37.011Z,59.8571
2023-02-10T09:21:46.586Z,59.8571
2023-02-10T09:22:37.079Z,59.9286
2023-02-10T09:23:37.127Z,59.8571
2023-02-10T09:24:37.164Z,59.8571
2023-02-10T09:25:37.189Z,59.7857
2023-02-10T09:26:37.227Z,59.7857
2023-02-10T09:27:37.256Z,59.7857
2023-02-10T09:28:37.296Z,59.6429
2023-02-10T09:29:37.324Z,59.6429
2023-02-10T09:30:37.363Z,59.5714
2023-02-10T09:31:37.546Z,59.5
2023-02-10T09:32:37.421Z,59.4286
2023-02-10T09:33:37.466Z,59.4286
2023-02-10T09:34:37.497Z,59.3571
2023-02-10T09:35:37.527Z,59.3571
2023-02-10T09:36:37.556Z,59.3571
2023-02-10T09:37:37.589Z,59.2143
2023-02-10T09:38:37.627Z,59.2857
2023-02-10T09:39:37.691Z,59.3571
2023-02-10T09:40:37.690Z,59.4286
2023-02-10T09:41:37.739Z,59.4286
2023-02-10T09:42:37.765Z,59.4286
2023-02-10T09:43:37.793Z,59.5
2023-02-10T09:44:37.854Z,59.3571
2023-02-10T09:45:37.902Z,59.2857
2023-02-10T09:46:37.899Z,59.3571
2023-02-10T09:47:37.926Z,59.3571
2023-02-10T09:48:37.968Z,59.4286
2023-02-10T09:49:38.006Z,59.4286
2023-02-10T09:50:38.041Z,59.3571
2023-02-10T09:51:38.086Z,59.3571
2023-02-10T09:52:38.109Z,59.4286
2023-02-10T09:53:38.133Z,59.4286
2023-02-10T09:54:38.170Z,59.3571
2023-02-10T09:55:38.200Z,59.3571
2023-02-10T09:56:38.239Z,59.2857
2023-02-10T09:57:38.266Z,59.2857
2023-02-10T09:58:38.309Z,59.2857
2023-02-10T09:59:38.404Z,59.2857
2023-02-10T10:00:38.372Z,59.2857
2023-02-10T10:01:38.411Z,59.2143
2023-02-10T10:02:38.549Z,59.2143
2023-02-10T10:03:38.472Z,59.2143
2023-02-10T10:04:38.515Z,59.2143
2023-02-10T10:05:38.530Z,59.2143
2023-02-10T10:06:39.855Z,59.2143
2023-02-10T10:07:38.607Z,59.1429
2023-02-10T10:08:38.649Z,59.2143
2023-02-10T10:09:38.687Z,59.1429
2023-02-10T10:10:38.703Z,59.0714
2023-02-10T10:11:38.755Z,59
2023-02-10T10:12:38.779Z,58.9286
2023-02-10T10:13:38.799Z,58.9286
2023-02-10T10:14:38.840Z,58.7857
2023-02-10T10:15:38.870Z,58.7143
2023-02-10T10:16:38.954Z,58.6429
2023-02-10T10:17:38.943Z,58.6429
2023-02-10T10:18:38.967Z,58.5714
2023-02-10T10:19:38.998Z,58.6429
2023-02-10T10:20:39.033Z,58.6429
2023-02-10T10:21:39.065Z,58.6429
2023-02-10T10:22:39.121Z,58.5714
2023-02-10T10:23:39.132Z,58.4286
2023-02-10T10:24:39.170Z,58.4286
2023-02-10T10:25:39.203Z,58.4286
2023-02-10T10:26:39.259Z,58.5
2023-02-10T10:27:39.269Z,58.5
2023-02-10T10:28:39.311Z,58.4286
2023-02-10T10:29:39.354Z,58.3571
2023-02-10T10:30:39.396Z,58.2857
2023-02-10T10:31:39.441Z,58.2143
2023-02-10T10:32:39.437Z,58.2143
2023-02-10T10:33:41.056Z,58.0714
2023-02-10T10:34:39.518Z,57.9286
2023-02-10T10:35:39.569Z,57.9286
2023-02-10T10:36:39.580Z,57.8571
2023-02-10T10:37:39.618Z,57.9286
2023-02-10T10:38:39.645Z,57.9286
2023-02-10T10:39:39.788Z,58
2023-02-10T10:40:39.739Z,57.9286
2023-02-10T10:41:39.736Z,57.8571
2023-02-10T10:42:39.779Z,58
2023-02-10T10:43:39.808Z,58.0714
2023-02-10T10:44:39.827Z,58.1429
2023-02-10T10:45:39.890Z,58.2143
2023-02-10T10:46:39.900Z,58.2143
2023-02-10T10:47:39.923Z,58.2143
2023-02-10T10:48:39.978Z,58.1429
2023-02-10T10:49:40.012Z,58.0714
2023-02-10T10:50:40.042Z,58.0714
2023-02-10T10:51:40.077Z,58.1429
2023-02-10T10:52:40.119Z,58.1429
2023-02-10T10:53:40.147Z,58.1429
2023-02-10T10:54:40.201Z,58.1429
2023-02-10T10:55:40.227Z,58.1429
2023-02-10T10:56:40.251Z,58
2023-02-10T10:57:40.279Z,58
2023-02-10T10:58:40.330Z,57.9286
2023-02-10T10:59:40.352Z,58
2023-02-10T11:00:40.396Z,57.9286
2023-02-10T11:01:40.506Z,58
2023-02-10T11:02:40.540Z,57.9286
2023-02-10T11:03:40.490Z,57.8571
2023-02-10T11:04:40.512Z,58
2023-02-10T11:05:40.549Z,58.0714
2023-02-10T11:06:40.589Z,58.0714
2023-02-10T11:07:40.626Z,58
2023-02-10T11:08:40.659Z,58
2023-02-10T11:09:40.704Z,58
2023-02-10T11:10:40.728Z,58
2023-02-10T11:11:40.763Z,57.8571
2023-02-10T11:12:40.791Z,57.8571
2023-02-10T11:13:40.822Z,57.8571
2023-02-10T11:14:40.872Z,57.9286
2023-02-10T11:15:40.912Z,58
2023-02-10T11:16:41.004Z,58
2023-02-10T11:17:40.965Z,58.0714
2023-02-10T11:18:41.000Z,57.9286
2023-02-10T11:19:49.198Z,57.8571
2023-02-10T11:20:41.073Z,57.7857
2023-02-10T11:21:41.104Z,57.7857
2023-02-10T11:22:41.139Z,57.7857
2023-02-10T11:23:41.165Z,57.8571
2023-02-10T11:24:41.211Z,57.8571
2023-02-10T11:25:41.253Z,57.8571
2023-02-10T11:26:41.276Z,57.9286
2023-02-10T11:27:41.304Z,58
2023-02-10T11:28:41.348Z,57.8571
2023-02-10T11:29:41.384Z,57.7143
2023-02-10T11:30:41.516Z,57.7143
2023-02-10T11:31:41.553Z,57.7143
2023-02-10T11:32:41.474Z,57.6429
2023-02-10T11:33:41.504Z,57.4286
2023-02-10T11:34:41.542Z,57.2857
2023-02-10T11:35:41.582Z,57.1429
2023-02-10T11:36:41.609Z,57.2143
2023-02-10T11:37:41.646Z,57.2857
2023-02-10T11:38:41.672Z,57.2143
2023-02-10T11:39:41.743Z,57.2143
2023-02-10T11:40:41.734Z,57
2023-02-10T11:41:41.775Z,56.7857
2023-02-10T11:42:41.811Z,56.5
2023-02-10T11:43:41.844Z,56.2857
2023-02-10T11:44:41.898Z,56.0714
2023-02-10T11:45:41.922Z,55.9286
2023-02-10T11:46:41.952Z,56
2023-02-10T11:47:41.995Z,55.9286
2023-02-10T11:48:42.031Z,55.7143
2023-02-10T11:49:42.071Z,55.5714
2023-02-10T11:50:42.099Z,55.5
2023-02-10T11:51:42.127Z,55.5714
2023-02-10T11:52:42.164Z,55.6429
2023-02-10T11:53:42.228Z,55.6429
2023-02-10T11:54:42.228Z,55.6429
2023-02-10T11:55:42.276Z,55.5714
2023-02-10T11:56:42.312Z,55.3571
2023-02-10T11:57:42.340Z,55.2857
2023-02-10T11:58:42.366Z,55.2857
2023-02-10T11:59:42.403Z,55.2143
2023-02-10T12:00:42.434Z,55.1429
2023-02-10T12:01:42.485Z,55.0714
2023-02-10T12:02:42.566Z,55
2023-02-10T12:03:42.534Z,55.1429
2023-02-10T12:04:42.572Z,55.0714
2023-02-10T12:05:42.753Z,55.2143
2023-02-10T12:06:42.623Z,55.2143
2023-02-10T12:07:42.658Z,55.2857
2023-02-10T12:08:42.696Z,55.3571
2023-02-10T12:09:42.754Z,55.4286
2023-02-10T12:10:42.758Z,55.5
2023-02-10T12:11:42.818Z,55.5714
2023-02-10T12:12:42.815Z,55.5
2023-02-10T12:13:42.846Z,55.4286
2023-02-10T12:14:42.881Z,55.3571
2023-02-10T12:15:42.962Z,55.4286
2023-02-10T12:16:42.934Z,55.5714
2023-02-10T12:17:42.977Z,55.7143
2023-02-10T12:18:43.013Z,55.7857